sensor_id;sensor_type;location;lat;lon;timestamp;P1;durP1;ratioP1;P2;durP2;ratioP2
31768;SDS011;18342;52.132;21.048;2022-08-01T00:01:00;5.68;;;3.47;;
31768;SDS011;18342;52.132;21.048;2022-08-01T00:03:26;4.82;;;3.35;;
31768;SDS011;18342;52.132;21.048;2022-08-01T00:05:51;4.53;;;3.00;;
31768;SDS011;18342;52.132;21.048;2022-08-01T00:08:17;7.07;;;2.83;;
31768;SDS011;18342;52.132;21.048;2022-08-01T00:10:42;3.30;;;3.00;;
31768;SDS011;18342;52.132;21.048;2022-08-01T00:13:08;5.85;;;2.90;;
31768;SDS011;18342;52.132;21.048;2022-08-01T00:15:34;5.43;;;3.08;;
31768;SDS011;18342;52.132;21.048;2022-08-01T00:18:00;3.50;;;3.13;;
31768;SDS011;18342;52.132;21.048;2022-08-01T00:20:26;6.35;;;3.20;;
31768;SDS011;18342;52.132;21.048;2022-08-01T00:22:51;8.00;;;2.97;;
31768;SDS011;18342;52.132;21.048;2022-08-01T00:25:17;3.55;;;2.63;;
31768;SDS011;18342;52.132;21.048;2022-08-01T00:27:43;3.70;;;3.13;;
31768;SDS011;18342;52.132;21.048;2022-08-01T00:30:08;8.45;;;3.13;;
31768;SDS011;18342;52.132;21.048;2022-08-01T00:32:34;5.10;;;3.10;;
31768;SDS011;18342;52.132;21.048;2022-08-01T00:35:00;6.68;;;3.13;;
31768;SDS011;18342;52.132;21.048;2022-08-01T00:37:26;4.13;;;3.15;;
31768;SDS011;18342;52.132;21.048;2022-08-01T00:39:51;8.93;;;3.10;;
31768;SDS011;18342;52.132;21.048;2022-08-01T00:42:17;5.37;;;2.80;;
31768;SDS011;18342;52.132;21.048;2022-08-01T00:44:43;3.67;;;3.20;;
31768;SDS011;18342;52.132;21.048;2022-08-01T00:47:09;4.00;;;2.95;;
31768;SDS011;18342;52.132;21.048;2022-08-01T00:49:35;5.20;;;3.13;;
31768;SDS011;18342;52.132;21.048;2022-08-01T00:52:00;5.57;;;2.92;;
31768;SDS011;18342;52.132;21.048;2022-08-01T00:54:29;7.55;;;3.13;;
31768;SDS011;18342;52.132;21.048;2022-08-01T00:56:55;5.38;;;2.90;;
31768;SDS011;18342;52.132;21.048;2022-08-01T00:59:22;7.63;;;2.70;;
31768;SDS011;18342;52.132;21.048;2022-08-01T01:01:48;3.20;;;2.90;;
31768;SDS011;18342;52.132;21.048;2022-08-01T01:04:14;4.45;;;2.65;;
31768;SDS011;18342;52.132;21.048;2022-08-01T01:17:27;3.78;;;2.90;;
31768;SDS011;18342;52.132;21.048;2022-08-01T01:19:57;4.35;;;3.05;;
31768;SDS011;18342;52.132;21.048;2022-08-01T01:30:31;8.63;;;3.10;;
31768;SDS011;18342;52.132;21.048;2022-08-01T01:32:58;6.75;;;3.15;;
31768;SDS011;18342;52.132;21.048;2022-08-01T01:35:28;5.10;;;2.83;;
31768;SDS011;18342;52.132;21.048;2022-08-01T01:37:59;8.02;;;3.58;;
31768;SDS011;18342;52.132;21.048;2022-08-01T01:40:52;4.88;;;3.65;;
31768;SDS011;18342;52.132;21.048;2022-08-01T01:43:20;6.55;;;4.18;;
31768;SDS011;18342;52.132;21.048;2022-08-01T01:45:48;5.50;;;4.03;;
31768;SDS011;18342;52.132;21.048;2022-08-01T01:48:18;5.72;;;4.65;;
31768;SDS011;18342;52.132;21.048;2022-08-01T01:50:47;8.52;;;4.28;;
31768;SDS011;18342;52.132;21.048;2022-08-01T01:53:15;6.00;;;4.30;;
31768;SDS011;18342;52.132;21.048;2022-08-01T01:55:44;9.82;;;4.80;;
31768;SDS011;18342;52.132;21.048;2022-08-01T01:58:13;7.75;;;4.15;;
31768;SDS011;18342;52.132;21.048;2022-08-01T02:00:40;5.22;;;4.13;;
31768;SDS011;18342;52.132;21.048;2022-08-01T02:03:11;8.02;;;4.22;;
31768;SDS011;18342;52.132;21.048;2022-08-01T02:05:38;8.50;;;4.22;;
31768;SDS011;18342;52.132;21.048;2022-08-01T02:08:04;10.50;;;3.55;;
31768;SDS011;18342;52.132;21.048;2022-08-01T02:10:33;5.32;;;3.83;;
31768;SDS011;18342;52.132;21.048;2022-08-01T02:13:02;7.25;;;4.13;;
31768;SDS011;18342;52.132;21.048;2022-08-01T02:15:30;8.90;;;3.80;;
31768;SDS011;18342;52.132;21.048;2022-08-01T02:17:58;6.30;;;3.70;;
31768;SDS011;18342;52.132;21.048;2022-08-01T02:20:27;5.15;;;3.65;;
31768;SDS011;18342;52.132;21.048;2022-08-01T02:23:06;4.55;;;3.63;;
31768;SDS011;18342;52.132;21.048;2022-08-01T02:25:42;3.95;;;3.30;;
31768;SDS011;18342;52.132;21.048;2022-08-01T02:28:20;6.50;;;3.22;;
31768;SDS011;18342;52.132;21.048;2022-08-01T02:30:50;5.30;;;3.10;;
31768;SDS011;18342;52.132;21.048;2022-08-01T02:33:18;7.35;;;3.10;;
31768;SDS011;18342;52.132;21.048;2022-08-01T02:35:54;5.20;;;3.05;;
31768;SDS011;18342;52.132;21.048;2022-08-01T02:38:24;4.68;;;3.05;;
31768;SDS011;18342;52.132;21.048;2022-08-01T02:40:52;6.25;;;3.30;;
31768;SDS011;18342;52.132;21.048;2022-08-01T02:43:23;7.50;;;3.15;;
31768;SDS011;18342;52.132;21.048;2022-08-01T02:45:53;3.63;;;2.88;;
31768;SDS011;18342;52.132;21.048;2022-08-01T02:48:22;4.30;;;2.83;;
31768;SDS011;18342;52.132;21.048;2022-08-01T02:50:51;5.50;;;3.05;;
31768;SDS011;18342;52.132;21.048;2022-08-01T02:53:19;9.85;;;3.40;;
31768;SDS011;18342;52.132;21.048;2022-08-01T02:55:47;7.63;;;3.60;;
31768;SDS011;18342;52.132;21.048;2022-08-01T02:58:14;5.93;;;3.15;;
31768;SDS011;18342;52.132;21.048;2022-08-01T03:00:42;6.05;;;3.30;;
31768;SDS011;18342;52.132;21.048;2022-08-01T03:03:09;5.95;;;3.08;;
31768;SDS011;18342;52.132;21.048;2022-08-01T03:05:36;4.70;;;3.17;;
31768;SDS011;18342;52.132;21.048;2022-08-01T03:08:05;5.13;;;3.20;;
31768;SDS011;18342;52.132;21.048;2022-08-01T03:10:32;6.05;;;3.33;;
31768;SDS011;18342;52.132;21.048;2022-08-01T03:13:01;4.22;;;2.85;;
31768;SDS011;18342;52.132;21.048;2022-08-01T03:15:30;5.90;;;3.08;;
31768;SDS011;18342;52.132;21.048;2022-08-01T03:17:58;5.65;;;2.70;;
31768;SDS011;18342;52.132;21.048;2022-08-01T03:20:26;9.52;;;3.20;;
31768;SDS011;18342;52.132;21.048;2022-08-01T03:22:54;6.70;;;3.03;;
31768;SDS011;18342;52.132;21.048;2022-08-01T03:25:23;12.02;;;3.55;;
31768;SDS011;18342;52.132;21.048;2022-08-01T03:27:54;4.85;;;3.15;;
31768;SDS011;18342;52.132;21.048;2022-08-01T03:30:22;4.97;;;2.80;;
31768;SDS011;18342;52.132;21.048;2022-08-01T03:32:48;5.40;;;2.90;;
31768;SDS011;18342;52.132;21.048;2022-08-01T03:35:14;8.90;;;3.13;;
31768;SDS011;18342;52.132;21.048;2022-08-01T03:37:41;3.65;;;3.17;;
31768;SDS011;18342;52.132;21.048;2022-08-01T03:40:17;6.70;;;3.58;;
31768;SDS011;18342;52.132;21.048;2022-08-01T03:42:48;10.70;;;3.33;;
31768;SDS011;18342;52.132;21.048;2022-08-01T03:45:19;7.95;;;3.15;;
31768;SDS011;18342;52.132;21.048;2022-08-01T03:47:49;7.80;;;3.30;;
31768;SDS011;18342;52.132;21.048;2022-08-01T03:50:18;7.80;;;3.50;;
31768;SDS011;18342;52.132;21.048;2022-08-01T03:52:46;5.72;;;3.25;;
31768;SDS011;18342;52.132;21.048;2022-08-01T03:55:13;5.15;;;3.35;;
31768;SDS011;18342;52.132;21.048;2022-08-01T03:57:41;5.63;;;3.17;;
31768;SDS011;18342;52.132;21.048;2022-08-01T04:00:09;5.35;;;3.75;;
31768;SDS011;18342;52.132;21.048;2022-08-01T04:02:35;5.13;;;3.55;;
31768;SDS011;18342;52.132;21.048;2022-08-01T04:05:03;9.77;;;4.13;;
31768;SDS011;18342;52.132;21.048;2022-08-01T04:07:30;6.85;;;4.28;;
31768;SDS011;18342;52.132;21.048;2022-08-01T04:09:57;8.77;;;3.92;;
31768;SDS011;18342;52.132;21.048;2022-08-01T04:12:23;10.25;;;4.28;;
31768;SDS011;18342;52.132;21.048;2022-08-01T04:14:49;6.57;;;4.15;;
31768;SDS011;18342;52.132;21.048;2022-08-01T04:17:15;10.60;;;4.45;;
31768;SDS011;18342;52.132;21.048;2022-08-01T04:19:42;6.20;;;4.10;;
31768;SDS011;18342;52.132;21.048;2022-08-01T04:22:09;11.20;;;4.67;;
31768;SDS011;18342;52.132;21.048;2022-08-01T04:24:36;7.63;;;4.20;;
31768;SDS011;18342;52.132;21.048;2022-08-01T04:27:04;11.38;;;5.30;;
31768;SDS011;18342;52.132;21.048;2022-08-01T04:29:35;7.85;;;4.88;;
31768;SDS011;18342;52.132;21.048;2022-08-01T04:32:02;6.50;;;4.65;;
31768;SDS011;18342;52.132;21.048;2022-08-01T04:34:30;8.80;;;4.75;;
31768;SDS011;18342;52.132;21.048;2022-08-01T04:36:57;7.43;;;5.40;;
31768;SDS011;18342;52.132;21.048;2022-08-01T04:39:25;8.65;;;4.65;;
31768;SDS011;18342;52.132;21.048;2022-08-01T04:41:53;8.88;;;5.20;;
31768;SDS011;18342;52.132;21.048;2022-08-01T04:44:23;10.65;;;4.75;;
31768;SDS011;18342;52.132;21.048;2022-08-01T04:46:49;5.25;;;4.75;;
31768;SDS011;18342;52.132;21.048;2022-08-01T04:49:19;8.57;;;5.20;;
31768;SDS011;18342;52.132;21.048;2022-08-01T04:51:52;12.13;;;5.75;;
31768;SDS011;18342;52.132;21.048;2022-08-01T04:54:32;5.97;;;4.97;;
31768;SDS011;18342;52.132;21.048;2022-08-01T04:57:01;10.48;;;5.15;;
31768;SDS011;18342;52.132;21.048;2022-08-01T04:59:29;6.95;;;5.28;;
31768;SDS011;18342;52.132;21.048;2022-08-01T05:02:05;7.40;;;4.78;;
31768;SDS011;18342;52.132;21.048;2022-08-01T05:04:32;5.57;;;4.50;;
31768;SDS011;18342;52.132;21.048;2022-08-01T05:06:57;7.70;;;5.38;;
31768;SDS011;18342;52.132;21.048;2022-08-01T05:09:23;16.30;;;5.32;;
31768;SDS011;18342;52.132;21.048;2022-08-01T05:11:49;6.32;;;4.28;;
31768;SDS011;18342;52.132;21.048;2022-08-01T05:14:14;6.57;;;5.13;;
31768;SDS011;18342;52.132;21.048;2022-08-01T05:16:40;9.88;;;5.05;;
31768;SDS011;18342;52.132;21.048;2022-08-01T05:19:06;10.27;;;4.80;;
31768;SDS011;18342;52.132;21.048;2022-08-01T05:21:33;8.30;;;4.93;;
31768;SDS011;18342;52.132;21.048;2022-08-01T05:23:59;6.72;;;4.85;;
31768;SDS011;18342;52.132;21.048;2022-08-01T05:26:24;7.32;;;4.72;;
31768;SDS011;18342;52.132;21.048;2022-08-01T05:28:50;7.15;;;5.13;;
31768;SDS011;18342;52.132;21.048;2022-08-01T05:31:16;8.67;;;4.70;;
31768;SDS011;18342;52.132;21.048;2022-08-01T05:33:41;6.85;;;5.38;;
31768;SDS011;18342;52.132;21.048;2022-08-01T05:36:07;7.18;;;5.32;;
31768;SDS011;18342;52.132;21.048;2022-08-01T05:38:33;5.88;;;5.20;;
31768;SDS011;18342;52.132;21.048;2022-08-01T05:40:59;5.68;;;4.82;;
31768;SDS011;18342;52.132;21.048;2022-08-01T05:43:24;6.60;;;5.70;;
31768;SDS011;18342;52.132;21.048;2022-08-01T05:45:50;8.30;;;6.07;;
31768;SDS011;18342;52.132;21.048;2022-08-01T05:48:16;10.98;;;6.22;;
31768;SDS011;18342;52.132;21.048;2022-08-01T05:50:41;10.18;;;7.05;;
31768;SDS011;18342;52.132;21.048;2022-08-01T05:53:07;6.90;;;6.30;;
31768;SDS011;18342;52.132;21.048;2022-08-01T05:55:33;6.85;;;6.22;;
31768;SDS011;18342;52.132;21.048;2022-08-01T05:58:00;7.60;;;6.40;;
31768;SDS011;18342;52.132;21.048;2022-08-01T06:00:25;8.82;;;5.80;;
31768;SDS011;18342;52.132;21.048;2022-08-01T06:02:51;8.23;;;6.93;;
31768;SDS011;18342;52.132;21.048;2022-08-01T06:05:17;10.75;;;7.50;;
31768;SDS011;18342;52.132;21.048;2022-08-01T06:07:42;11.15;;;7.80;;
31768;SDS011;18342;52.132;21.048;2022-08-01T06:10:08;8.57;;;6.55;;
31768;SDS011;18342;52.132;21.048;2022-08-01T06:12:35;10.20;;;6.28;;
31768;SDS011;18342;52.132;21.048;2022-08-01T06:15:01;6.53;;;5.72;;
31768;SDS011;18342;52.132;21.048;2022-08-01T06:17:28;6.88;;;6.18;;
31768;SDS011;18342;52.132;21.048;2022-08-01T06:19:54;5.78;;;5.28;;
31768;SDS011;18342;52.132;21.048;2022-08-01T06:22:19;9.20;;;6.28;;
31768;SDS011;18342;52.132;21.048;2022-08-01T06:24:45;7.40;;;5.35;;
31768;SDS011;18342;52.132;21.048;2022-08-01T06:27:10;7.22;;;5.38;;
31768;SDS011;18342;52.132;21.048;2022-08-01T06:29:36;10.75;;;5.22;;
31768;SDS011;18342;52.132;21.048;2022-08-01T06:32:02;14.77;;;6.03;;
31768;SDS011;18342;52.132;21.048;2022-08-01T06:34:28;9.93;;;5.60;;
31768;SDS011;18342;52.132;21.048;2022-08-01T06:36:53;11.60;;;4.70;;
31768;SDS011;18342;52.132;21.048;2022-08-01T06:39:19;8.13;;;4.65;;
31768;SDS011;18342;52.132;21.048;2022-08-01T06:41:45;5.10;;;4.28;;
31768;SDS011;18342;52.132;21.048;2022-08-01T06:44:13;6.55;;;4.70;;
31768;SDS011;18342;52.132;21.048;2022-08-01T06:46:39;6.00;;;4.78;;
31768;SDS011;18342;52.132;21.048;2022-08-01T06:49:04;6.25;;;4.65;;
31768;SDS011;18342;52.132;21.048;2022-08-01T06:51:30;6.03;;;4.20;;
31768;SDS011;18342;52.132;21.048;2022-08-01T06:53:56;4.65;;;4.22;;
31768;SDS011;18342;52.132;21.048;2022-08-01T06:56:22;6.25;;;3.92;;
31768;SDS011;18342;52.132;21.048;2022-08-01T06:58:48;4.60;;;3.50;;
31768;SDS011;18342;52.132;21.048;2022-08-01T07:01:17;4.10;;;3.05;;
31768;SDS011;18342;52.132;21.048;2022-08-01T07:03:43;5.20;;;2.75;;
31768;SDS011;18342;52.132;21.048;2022-08-01T07:06:08;6.35;;;2.90;;
31768;SDS011;18342;52.132;21.048;2022-08-01T07:08:34;4.97;;;3.20;;
31768;SDS011;18342;52.132;21.048;2022-08-01T07:11:00;3.78;;;2.70;;
31768;SDS011;18342;52.132;21.048;2022-08-01T07:13:26;5.07;;;3.13;;
31768;SDS011;18342;52.132;21.048;2022-08-01T07:15:53;4.13;;;2.42;;
31768;SDS011;18342;52.132;21.048;2022-08-01T07:18:19;3.90;;;2.45;;
31768;SDS011;18342;52.132;21.048;2022-08-01T07:20:44;4.20;;;2.92;;
31768;SDS011;18342;52.132;21.048;2022-08-01T07:23:13;2.90;;;2.60;;
31768;SDS011;18342;52.132;21.048;2022-08-01T07:25:39;4.95;;;2.70;;
31768;SDS011;18342;52.132;21.048;2022-08-01T07:28:04;5.68;;;2.45;;
31768;SDS011;18342;52.132;21.048;2022-08-01T07:30:30;6.93;;;2.70;;
31768;SDS011;18342;52.132;21.048;2022-08-01T07:32:56;5.07;;;2.33;;
31768;SDS011;18342;52.132;21.048;2022-08-01T07:35:22;4.93;;;2.83;;
31768;SDS011;18342;52.132;21.048;2022-08-01T07:37:47;4.75;;;2.47;;
31768;SDS011;18342;52.132;21.048;2022-08-01T07:40:13;5.07;;;1.85;;
31768;SDS011;18342;52.132;21.048;2022-08-01T07:42:39;4.15;;;1.90;;
31768;SDS011;18342;52.132;21.048;2022-08-01T07:45:08;2.55;;;2.10;;
31768;SDS011;18342;52.132;21.048;2022-08-01T07:47:35;2.42;;;1.90;;
31768;SDS011;18342;52.132;21.048;2022-08-01T07:50:04;2.80;;;1.98;;
31768;SDS011;18342;52.132;21.048;2022-08-01T07:52:31;6.30;;;2.10;;
31768;SDS011;18342;52.132;21.048;2022-08-01T07:54:56;2.75;;;1.70;;
31768;SDS011;18342;52.132;21.048;2022-08-01T07:57:23;3.33;;;1.95;;
31768;SDS011;18342;52.132;21.048;2022-08-01T07:59:50;2.10;;;1.90;;
31768;SDS011;18342;52.132;21.048;2022-08-01T08:02:16;3.20;;;1.70;;
31768;SDS011;18342;52.132;21.048;2022-08-01T08:04:42;4.28;;;1.70;;
31768;SDS011;18342;52.132;21.048;2022-08-01T08:07:08;2.75;;;1.98;;
31768;SDS011;18342;52.132;21.048;2022-08-01T08:09:34;3.00;;;1.30;;
31768;SDS011;18342;52.132;21.048;2022-08-01T08:11:59;2.75;;;1.52;;
31768;SDS011;18342;52.132;21.048;2022-08-01T08:14:25;2.67;;;1.60;;
31768;SDS011;18342;52.132;21.048;2022-08-01T08:16:51;2.10;;;1.48;;
31768;SDS011;18342;52.132;21.048;2022-08-01T08:19:17;2.47;;;1.70;;
31768;SDS011;18342;52.132;21.048;2022-08-01T08:21:43;1.65;;;1.45;;
31768;SDS011;18342;52.132;21.048;2022-08-01T08:24:09;5.35;;;1.80;;
31768;SDS011;18342;52.132;21.048;2022-08-01T08:26:52;1.98;;;1.50;;
31768;SDS011;18342;52.132;21.048;2022-08-01T08:29:23;2.45;;;1.55;;
31768;SDS011;18342;52.132;21.048;2022-08-01T08:31:54;1.85;;;1.60;;
31768;SDS011;18342;52.132;21.048;2022-08-01T08:34:20;5.20;;;1.83;;
31768;SDS011;18342;52.132;21.048;2022-08-01T08:36:46;3.65;;;1.70;;
31768;SDS011;18342;52.132;21.048;2022-08-01T08:39:13;1.38;;;1.27;;
31768;SDS011;18342;52.132;21.048;2022-08-01T08:41:39;1.95;;;1.50;;
31768;SDS011;18342;52.132;21.048;2022-08-01T08:44:05;2.35;;;1.23;;
31768;SDS011;18342;52.132;21.048;2022-08-01T08:46:32;1.98;;;1.63;;
31768;SDS011;18342;52.132;21.048;2022-08-01T08:48:59;4.30;;;1.60;;
31768;SDS011;18342;52.132;21.048;2022-08-01T08:51:26;3.20;;;1.38;;
31768;SDS011;18342;52.132;21.048;2022-08-01T08:53:55;3.70;;;1.58;;
31768;SDS011;18342;52.132;21.048;2022-08-01T08:56:23;7.45;;;1.50;;
31768;SDS011;18342;52.132;21.048;2022-08-01T08:58:49;1.73;;;1.58;;
31768;SDS011;18342;52.132;21.048;2022-08-01T09:01:16;2.00;;;1.30;;
31768;SDS011;18342;52.132;21.048;2022-08-01T09:03:43;1.90;;;1.60;;
31768;SDS011;18342;52.132;21.048;2022-08-01T09:06:09;2.30;;;1.60;;
31768;SDS011;18342;52.132;21.048;2022-08-01T09:08:35;1.60;;;1.50;;
31768;SDS011;18342;52.132;21.048;2022-08-01T09:11:01;3.20;;;1.48;;
31768;SDS011;18342;52.132;21.048;2022-08-01T09:13:28;2.53;;;1.50;;
31768;SDS011;18342;52.132;21.048;2022-08-01T09:15:55;4.88;;;1.20;;
31768;SDS011;18342;52.132;21.048;2022-08-01T09:18:31;2.22;;;1.17;;
31768;SDS011;18342;52.132;21.048;2022-08-01T09:23:40;3.10;;;1.73;;
31768;SDS011;18342;52.132;21.048;2022-08-01T09:26:14;6.10;;;1.90;;
31768;SDS011;18342;52.132;21.048;2022-08-01T09:28:41;3.90;;;1.30;;
31768;SDS011;18342;52.132;21.048;2022-08-01T09:31:09;3.45;;;1.42;;
31768;SDS011;18342;52.132;21.048;2022-08-01T09:36:13;1.60;;;1.27;;
31768;SDS011;18342;52.132;21.048;2022-08-01T09:38:39;3.58;;;1.67;;
31768;SDS011;18342;52.132;21.048;2022-08-01T09:41:05;3.33;;;1.42;;
31768;SDS011;18342;52.132;21.048;2022-08-01T09:43:32;2.10;;;1.20;;
31768;SDS011;18342;52.132;21.048;2022-08-01T09:45:58;2.38;;;1.25;;
31768;SDS011;18342;52.132;21.048;2022-08-01T09:48:25;1.55;;;1.20;;
31768;SDS011;18342;52.132;21.048;2022-08-01T09:50:52;2.03;;;1.15;;
31768;SDS011;18342;52.132;21.048;2022-08-01T09:53:18;4.00;;;1.35;;
31768;SDS011;18342;52.132;21.048;2022-08-01T09:55:44;1.50;;;1.15;;
31768;SDS011;18342;52.132;21.048;2022-08-01T09:58:10;5.28;;;1.45;;
31768;SDS011;18342;52.132;21.048;2022-08-01T10:00:37;1.30;;;1.13;;
31768;SDS011;18342;52.132;21.048;2022-08-01T10:03:24;1.40;;;1.27;;
31768;SDS011;18342;52.132;21.048;2022-08-01T10:05:51;2.33;;;1.65;;
31768;SDS011;18342;52.132;21.048;2022-08-01T10:08:18;2.08;;;1.40;;
31768;SDS011;18342;52.132;21.048;2022-08-01T10:11:09;3.55;;;1.48;;
31768;SDS011;18342;52.132;21.048;2022-08-01T10:13:36;2.97;;;1.48;;
31768;SDS011;18342;52.132;21.048;2022-08-01T10:16:02;2.35;;;1.65;;
31768;SDS011;18342;52.132;21.048;2022-08-01T10:18:31;1.98;;;1.50;;
31768;SDS011;18342;52.132;21.048;2022-08-01T10:20:59;1.60;;;1.40;;
31768;SDS011;18342;52.132;21.048;2022-08-01T10:23:26;1.63;;;1.40;;
31768;SDS011;18342;52.132;21.048;2022-08-01T10:25:55;2.22;;;1.30;;
31768;SDS011;18342;52.132;21.048;2022-08-01T10:28:23;3.15;;;1.70;;
31768;SDS011;18342;52.132;21.048;2022-08-01T10:30:51;2.25;;;1.67;;
31768;SDS011;18342;52.132;21.048;2022-08-01T10:33:17;1.67;;;1.55;;
31768;SDS011;18342;52.132;21.048;2022-08-01T10:35:45;2.88;;;1.83;;
31768;SDS011;18342;52.132;21.048;2022-08-01T10:38:11;4.63;;;2.00;;
31768;SDS011;18342;52.132;21.048;2022-08-01T10:40:37;4.85;;;1.75;;
31768;SDS011;18342;52.132;21.048;2022-08-01T10:43:04;2.58;;;1.80;;
31768;SDS011;18342;52.132;21.048;2022-08-01T10:45:30;4.60;;;1.80;;
31768;SDS011;18342;52.132;21.048;2022-08-01T10:48:16;3.50;;;1.70;;
31768;SDS011;18342;52.132;21.048;2022-08-01T10:50:44;2.92;;;1.65;;
31768;SDS011;18342;52.132;21.048;2022-08-01T10:53:23;2.42;;;1.70;;
31768;SDS011;18342;52.132;21.048;2022-08-01T10:58:27;4.20;;;1.48;;
31768;SDS011;18342;52.132;21.048;2022-08-01T11:06:28;2.85;;;1.70;;
31768;SDS011;18342;52.132;21.048;2022-08-01T11:12:02;2.70;;;1.73;;
31768;SDS011;18342;52.132;21.048;2022-08-01T11:17:38;2.97;;;1.70;;
31768;SDS011;18342;52.132;21.048;2022-08-01T11:20:29;3.97;;;2.00;;
31768;SDS011;18342;52.132;21.048;2022-08-01T11:25:26;3.17;;;1.48;;
31768;SDS011;18342;52.132;21.048;2022-08-01T11:30:48;2.38;;;1.80;;
31768;SDS011;18342;52.132;21.048;2022-08-01T11:41:21;3.17;;;1.80;;
31768;SDS011;18342;52.132;21.048;2022-08-01T11:44:00;2.78;;;1.73;;
31768;SDS011;18342;52.132;21.048;2022-08-01T11:59:49;2.53;;;2.10;;
31768;SDS011;18342;52.132;21.048;2022-08-01T12:02:21;2.28;;;2.08;;
31768;SDS011;18342;52.132;21.048;2022-08-01T12:07:40;3.95;;;2.10;;
31768;SDS011;18342;52.132;21.048;2022-08-01T12:12:44;3.83;;;2.13;;
31768;SDS011;18342;52.132;21.048;2022-08-01T12:15:15;2.38;;;2.25;;
31768;SDS011;18342;52.132;21.048;2022-08-01T12:20:10;4.55;;;2.90;;
31768;SDS011;18342;52.132;21.048;2022-08-01T12:22:37;5.13;;;3.08;;
31768;SDS011;18342;52.132;21.048;2022-08-01T12:27:36;3.72;;;3.08;;
31768;SDS011;18342;52.132;21.048;2022-08-01T12:30:06;3.97;;;3.55;;
31768;SDS011;18342;52.132;21.048;2022-08-01T12:32:34;4.47;;;3.35;;
31768;SDS011;18342;52.132;21.048;2022-08-01T12:35:02;4.70;;;3.72;;
31768;SDS011;18342;52.132;21.048;2022-08-01T12:37:37;4.03;;;3.35;;
31768;SDS011;18342;52.132;21.048;2022-08-01T12:40:10;4.53;;;3.80;;
31768;SDS011;18342;52.132;21.048;2022-08-01T12:42:39;4.18;;;3.78;;
31768;SDS011;18342;52.132;21.048;2022-08-01T12:45:09;3.58;;;3.28;;
31768;SDS011;18342;52.132;21.048;2022-08-01T12:47:38;4.03;;;3.40;;
31768;SDS011;18342;52.132;21.048;2022-08-01T12:50:05;6.75;;;3.47;;
31768;SDS011;18342;52.132;21.048;2022-08-01T12:52:43;3.83;;;3.40;;
31768;SDS011;18342;52.132;21.048;2022-08-01T12:55:13;3.22;;;3.03;;
31768;SDS011;18342;52.132;21.048;2022-08-01T12:57:40;3.60;;;3.30;;
31768;SDS011;18342;52.132;21.048;2022-08-01T13:00:30;3.63;;;2.97;;
31768;SDS011;18342;52.132;21.048;2022-08-01T13:08:22;3.28;;;2.60;;
31768;SDS011;18342;52.132;21.048;2022-08-01T13:10:48;3.35;;;3.05;;
31768;SDS011;18342;52.132;21.048;2022-08-01T13:13:17;4.80;;;3.15;;
31768;SDS011;18342;52.132;21.048;2022-08-01T13:15:45;3.88;;;3.13;;
31768;SDS011;18342;52.132;21.048;2022-08-01T13:18:27;4.43;;;2.92;;
31768;SDS011;18342;52.132;21.048;2022-08-01T13:29:05;4.30;;;3.13;;
31768;SDS011;18342;52.132;21.048;2022-08-01T13:31:34;3.95;;;2.95;;
31768;SDS011;18342;52.132;21.048;2022-08-01T13:34:03;2.85;;;2.47;;
31768;SDS011;18342;52.132;21.048;2022-08-01T13:36:30;4.70;;;2.35;;
31768;SDS011;18342;52.132;21.048;2022-08-01T13:38:56;6.85;;;2.13;;
31768;SDS011;18342;52.132;21.048;2022-08-01T13:41:42;2.50;;;2.30;;
31768;SDS011;18342;52.132;21.048;2022-08-01T13:44:08;4.13;;;2.47;;
31768;SDS011;18342;52.132;21.048;2022-08-01T13:46:35;5.82;;;2.17;;
31768;SDS011;18342;52.132;21.048;2022-08-01T13:49:06;2.53;;;2.33;;
31768;SDS011;18342;52.132;21.048;2022-08-01T13:51:33;2.67;;;1.88;;
31768;SDS011;18342;52.132;21.048;2022-08-01T13:53:59;1.88;;;1.77;;
31768;SDS011;18342;52.132;21.048;2022-08-01T13:56:25;2.28;;;2.05;;
31768;SDS011;18342;52.132;21.048;2022-08-01T13:58:52;3.92;;;2.38;;
31768;SDS011;18342;52.132;21.048;2022-08-01T14:01:19;2.72;;;2.13;;
31768;SDS011;18342;52.132;21.048;2022-08-01T14:03:45;2.28;;;2.10;;
31768;SDS011;18342;52.132;21.048;2022-08-01T14:06:11;2.90;;;2.00;;
31768;SDS011;18342;52.132;21.048;2022-08-01T14:08:39;3.47;;;2.00;;
31768;SDS011;18342;52.132;21.048;2022-08-01T14:11:04;2.90;;;2.35;;
31768;SDS011;18342;52.132;21.048;2022-08-01T14:13:30;2.03;;;1.75;;
31768;SDS011;18342;52.132;21.048;2022-08-01T14:15:58;4.03;;;1.67;;
31768;SDS011;18342;52.132;21.048;2022-08-01T14:18:24;4.07;;;2.00;;
31768;SDS011;18342;52.132;21.048;2022-08-01T14:20:50;2.58;;;1.90;;
31768;SDS011;18342;52.132;21.048;2022-08-01T14:23:16;2.78;;;1.58;;
31768;SDS011;18342;52.132;21.048;2022-08-01T14:25:42;3.50;;;1.80;;
31768;SDS011;18342;52.132;21.048;2022-08-01T14:28:08;2.42;;;1.80;;
31768;SDS011;18342;52.132;21.048;2022-08-01T14:30:35;2.65;;;1.48;;
31768;SDS011;18342;52.132;21.048;2022-08-01T14:33:01;2.85;;;1.75;;
31768;SDS011;18342;52.132;21.048;2022-08-01T14:35:26;1.80;;;1.70;;
31768;SDS011;18342;52.132;21.048;2022-08-01T14:37:52;6.18;;;1.90;;
31768;SDS011;18342;52.132;21.048;2022-08-01T14:40:18;2.65;;;1.88;;
31768;SDS011;18342;52.132;21.048;2022-08-01T14:42:44;4.97;;;2.00;;
31768;SDS011;18342;52.132;21.048;2022-08-01T14:45:10;1.88;;;1.60;;
31768;SDS011;18342;52.132;21.048;2022-08-01T14:47:38;2.55;;;1.60;;
31768;SDS011;18342;52.132;21.048;2022-08-01T14:50:06;3.03;;;1.80;;
31768;SDS011;18342;52.132;21.048;2022-08-01T14:52:33;1.90;;;1.60;;
31768;SDS011;18342;52.132;21.048;2022-08-01T14:55:00;1.80;;;1.70;;
31768;SDS011;18342;52.132;21.048;2022-08-01T14:57:27;2.60;;;1.80;;
31768;SDS011;18342;52.132;21.048;2022-08-01T14:59:53;2.17;;;1.63;;
31768;SDS011;18342;52.132;21.048;2022-08-01T15:02:18;2.60;;;1.80;;
31768;SDS011;18342;52.132;21.048;2022-08-01T15:04:45;2.15;;;1.95;;
31768;SDS011;18342;52.132;21.048;2022-08-01T15:07:11;2.47;;;2.00;;
31768;SDS011;18342;52.132;21.048;2022-08-01T15:09:38;2.78;;;1.80;;
31768;SDS011;18342;52.132;21.048;2022-08-01T15:12:04;2.20;;;1.70;;
31768;SDS011;18342;52.132;21.048;2022-08-01T15:14:30;3.70;;;1.83;;
31768;SDS011;18342;52.132;21.048;2022-08-01T15:17:21;2.00;;;1.90;;
31768;SDS011;18342;52.132;21.048;2022-08-01T15:19:53;3.28;;;1.65;;
31768;SDS011;18342;52.132;21.048;2022-08-01T15:22:20;2.80;;;1.75;;
31768;SDS011;18342;52.132;21.048;2022-08-01T15:24:46;8.00;;;1.85;;
31768;SDS011;18342;52.132;21.048;2022-08-01T15:27:13;2.55;;;1.98;;
31768;SDS011;18342;52.132;21.048;2022-08-01T15:29:39;2.35;;;1.80;;
31768;SDS011;18342;52.132;21.048;2022-08-01T15:32:05;5.75;;;1.73;;
31768;SDS011;18342;52.132;21.048;2022-08-01T15:34:35;2.28;;;2.08;;
31768;SDS011;18342;52.132;21.048;2022-08-01T15:37:02;2.40;;;1.80;;
31768;SDS011;18342;52.132;21.048;2022-08-01T15:39:29;2.38;;;1.85;;
31768;SDS011;18342;52.132;21.048;2022-08-01T15:41:58;2.67;;;1.95;;
31768;SDS011;18342;52.132;21.048;2022-08-01T15:44:44;5.25;;;2.47;;
31768;SDS011;18342;52.132;21.048;2022-08-01T15:47:09;1.60;;;1.50;;
31768;SDS011;18342;52.132;21.048;2022-08-01T15:49:36;1.95;;;1.60;;
31768;SDS011;18342;52.132;21.048;2022-08-01T15:52:03;3.70;;;2.05;;
31768;SDS011;18342;52.132;21.048;2022-08-01T15:54:29;2.17;;;1.98;;
31768;SDS011;18342;52.132;21.048;2022-08-01T15:56:55;5.07;;;1.80;;
31768;SDS011;18342;52.132;21.048;2022-08-01T15:59:20;6.20;;;1.95;;
31768;SDS011;18342;52.132;21.048;2022-08-01T16:01:46;2.63;;;1.80;;
31768;SDS011;18342;52.132;21.048;2022-08-01T16:04:13;4.45;;;1.73;;
31768;SDS011;18342;52.132;21.048;2022-08-01T16:06:40;3.38;;;2.05;;